DFW Airport, Texas
Current Conditions -  °F | °C
As of 10:53 PM on Saturday 25 Oct 2014 (Local Time) from KDFW Reporting Station
Clear Clear  
Wind Chill: 23°   Ceiling: Unl
Heat Index: 23°   Visibility: 10mi
Dew Point: 16°   Wind: 9mph
Humidity: 64%   Direction: 190°S
Pressure: 30.04"   Gusts: NA
Location:  32.9°N, 97.03°W
Report Text: KDFW 260353Z 19008KT 10SM CLR 23/16 A3004 RMK AO2 SLP166 T02280156
Loading
Personal Weather Stations






























Interactive Weather Map
Tropical Storm Tracking
New forecast layout! Learn more

10-Day Weather Forecast

Advertisements
Track Severe Weather on mobile